Time;durP1;ratioP1;P1;durP2;ratioP2;P2;SDS_P1;SDS_P2;PMS_P1;PMS_P2;Temp;Humidity;BMP_temperature;BMP_pressure;BME280_temperature;BME280_humidity;BME280_pressure;Samples;Min_cycle;Max_cycle;Signal;HPM_P1;HPM_P2
2023/06/13 00:02:07;;;;;;;5.00;4.60;;;26.00;33.20;;;;;;4966252;28;20218;-47
2023/06/13 00:04:33;;;;;;;4.73;4.30;;;26.10;33.20;;;;;;4972705;28;20569;-50
2023/06/13 00:06:58;;;;;;;5.43;4.97;;;26.10;33.40;;;;;;4963440;28;20494;-46
2023/06/13 00:09:25;;;;;;;4.90;4.50;;;26.10;33.40;;;;;;4969273;28;20447;-48
2023/06/13 00:11:52;;;;;;;4.87;4.47;;;26.10;33.00;;;;;;4967479;28;20274;-49
2023/06/13 00:14:20;;;;;;;6.20;4.30;;;26.10;33.20;;;;;;4969917;28;21005;-48
2023/06/13 00:16:47;;;;;;;4.77;4.37;;;26.10;32.90;;;;;;4956753;28;20533;-51
2023/06/13 00:19:13;;;;;;;4.93;4.40;;;26.00;32.90;;;;;;4962711;28;20462;-46
2023/06/13 00:21:38;;;;;;;5.40;5.00;;;26.00;33.70;;;;;;4965028;28;20475;-50
2023/06/13 00:24:04;;;;;;;5.10;4.70;;;26.00;33.40;;;;;;4964102;28;20609;-50
2023/06/13 00:26:30;;;;;;;4.47;4.13;;;26.10;33.30;;;;;;4962251;28;20814;-48
2023/06/13 00:28:55;;;;;;;4.93;4.40;;;26.10;33.40;;;;;;4965908;28;20207;-46
2023/06/13 00:31:21;;;;;;;5.70;4.97;;;26.00;33.10;;;;;;4967888;28;20196;-49
2023/06/13 00:33:50;;;;;;;5.10;4.60;;;26.00;34.00;;;;;;4966509;28;20307;-51
2023/06/13 00:36:19;;;;;;;4.60;4.20;;;25.90;33.80;;;;;;4954946;28;20651;-46
2023/06/13 00:38:47;;;;;;;5.73;4.53;;;25.90;33.80;;;;;;4968961;28;20458;-46
2023/06/13 00:41:13;;;;;;;5.17;4.73;;;25.90;34.10;;;;;;4970042;28;20489;-46
2023/06/13 00:43:39;;;;;;;4.20;3.80;;;25.80;33.50;;;;;;4973262;28;20482;-45
2023/06/13 00:46:05;;;;;;;4.43;4.10;;;25.90;33.70;;;;;;4970340;28;20258;-49
2023/06/13 00:48:33;;;;;;;4.30;4.00;;;25.80;33.50;;;;;;4975483;28;20442;-50
2023/06/13 00:50:59;;;;;;;4.90;4.50;;;25.80;34.00;;;;;;4970950;28;20180;-51
2023/06/13 00:53:29;;;;;;;4.10;3.80;;;25.80;33.80;;;;;;4967181;28;20457;-46
2023/06/13 00:55:56;;;;;;;5.23;4.83;;;25.90;34.00;;;;;;4970295;28;20577;-46
2023/06/13 00:58:22;;;;;;;4.90;4.50;;;25.90;33.80;;;;;;4969469;28;20439;-49
2023/06/13 01:00:49;;;;;;;5.40;4.53;;;25.90;33.20;;;;;;4970661;28;20874;-46
2023/06/13 01:03:15;;;;;;;5.60;5.10;;;25.70;33.40;;;;;;4974018;28;20861;-48
2023/06/13 01:05:42;;;;;;;5.10;4.63;;;25.50;34.20;;;;;;4974795;28;20473;-49
2023/06/13 01:08:16;;;;;;;6.17;5.57;;;25.50;34.80;;;;;;4972405;28;20195;-48
2023/06/13 01:10:44;;;;;;;5.17;4.67;;;25.60;34.50;;;;;;4969360;28;20454;-48
2023/06/13 01:13:14;;;;;;;5.87;5.27;;;25.80;34.30;;;;;;4974651;28;20444;-47
2023/06/13 01:15:58;;;;;;;6.00;4.47;;;25.90;33.80;;;;;;4973646;28;20946;-49
2023/06/13 01:18:25;;;;;;;3.53;3.23;;;25.80;33.50;;;;;;4973100;28;20443;-46
2023/06/13 01:20:56;;;;;;;4.90;4.47;;;25.80;34.40;;;;;;4974827;28;20442;-52
2023/06/13 01:23:43;;;;;;;4.47;4.17;;;25.80;34.30;;;;;;4966466;28;20476;-49
2023/06/13 01:26:27;;;;;;;4.37;4.07;;;25.90;34.30;;;;;;4969426;28;20462;-47
2023/06/13 01:28:56;;;;;;;4.57;4.17;;;25.80;34.00;;;;;;4971903;28;20518;-50
2023/06/13 01:31:23;;;;;;;6.77;4.80;;;25.70;34.50;;;;;;4974666;28;20928;-50
2023/06/13 01:33:50;;;;;;;5.40;4.90;;;25.60;34.30;;;;;;4973432;28;20458;-46
2023/06/13 01:36:16;;;;;;;4.70;4.30;;;25.40;34.60;;;;;;4974046;28;20465;-52
2023/06/13 01:38:42;;;;;;;5.27;4.80;;;25.40;34.70;;;;;;4972216;28;20906;-48
2023/06/13 01:41:08;;;;;;;4.67;4.27;;;25.30;35.00;;;;;;4972456;28;20485;-50
2023/06/13 01:43:34;;;;;;;4.53;4.10;;;25.40;34.80;;;;;;4972076;28;20478;-51
2023/06/13 01:46:28;;;;;;;6.00;4.50;;;25.30;34.70;;;;;;4963901;28;20218;-49
2023/06/13 01:49:05;;;;;;;4.57;4.17;;;25.30;35.20;;;;;;4961812;28;20195;-51
2023/06/13 01:51:47;;;;;;;4.73;4.33;;;25.40;34.80;;;;;;4971308;28;20476;-48
2023/06/13 01:54:19;;;;;;;4.57;3.97;;;25.30;34.90;;;;;;4971564;28;20458;-48
2023/06/13 01:56:50;;;;;;;4.57;4.17;;;25.40;34.90;;;;;;4971878;28;20454;-47
2023/06/13 01:59:23;;;;;;;4.80;4.40;;;25.00;35.00;;;;;;4967305;28;21045;-51
2023/06/13 02:01:49;;;;;;;6.40;5.37;;;24.90;35.70;;;;;;4973462;28;20430;-49
2023/06/13 02:04:15;;;;;;;4.30;4.00;;;24.80;35.70;;;;;;4959349;28;20665;-52
2023/06/13 02:06:40;;;;;;;5.77;4.60;;;24.90;36.30;;;;;;4969675;28;20537;-49
2023/06/13 02:09:06;;;;;;;5.10;4.07;;;25.00;36.30;;;;;;4969900;28;20196;-47
2023/06/13 02:11:32;;;;;;;4.40;4.10;;;25.20;36.00;;;;;;4967136;28;20199;-51
2023/06/13 02:13:57;;;;;;;4.57;4.17;;;25.40;35.40;;;;;;4973395;28;20274;-51
2023/06/13 02:16:25;;;;;;;5.20;4.40;;;25.40;35.40;;;;;;4973136;28;20737;-51
2023/06/13 02:18:51;;;;;;;4.40;4.00;;;25.50;35.20;;;;;;4971990;28;20201;-50
2023/06/13 02:21:17;;;;;;;4.93;4.30;;;25.60;35.00;;;;;;4971295;28;20533;-49
2023/06/13 02:23:43;;;;;;;5.33;4.50;;;25.60;34.70;;;;;;4967955;28;20605;-50
2023/06/13 02:26:08;;;;;;;5.47;4.50;;;25.60;34.60;;;;;;4967201;28;20223;-48
2023/06/13 02:28:34;;;;;;;4.60;4.20;;;25.60;34.80;;;;;;4970463;28;20199;-49
2023/06/13 02:31:00;;;;;;;4.40;4.10;;;25.60;34.60;;;;;;4970813;28;20203;-49
2023/06/13 02:33:26;;;;;;;5.03;4.33;;;25.60;34.60;;;;;;4970179;28;20508;-49
2023/06/13 02:35:51;;;;;;;4.50;4.10;;;25.50;34.70;;;;;;4972470;28;20195;-48
2023/06/13 02:38:18;;;;;;;5.17;4.67;;;25.60;34.80;;;;;;4970821;28;20191;-49
2023/06/13 02:40:44;;;;;;;5.70;5.10;;;25.60;34.80;;;;;;4971585;28;20602;-49
2023/06/13 02:43:09;;;;;;;3.93;3.53;;;25.50;34.50;;;;;;4965320;28;20451;-51
2023/06/13 02:45:35;;;;;;;4.90;4.40;;;25.40;34.80;;;;;;4971416;28;20207;-49
2023/06/13 02:48:01;;;;;;;5.90;4.70;;;25.30;35.00;;;;;;4969828;28;20187;-49
2023/06/13 02:50:26;;;;;;;4.67;4.27;;;25.20;35.40;;;;;;4966979;28;20195;-47
2023/06/13 02:52:52;;;;;;;4.30;4.00;;;25.20;35.50;;;;;;4969443;28;20199;-49
2023/06/13 02:55:17;;;;;;;5.97;4.77;;;25.20;35.30;;;;;;4970000;28;20212;-49
2023/06/13 02:57:43;;;;;;;5.13;4.63;;;25.10;35.80;;;;;;4969616;28;20198;-52
2023/06/13 03:00:11;;;;;;;5.57;4.20;;;24.90;36.10;;;;;;4960546;28;20206;-48
2023/06/13 03:02:37;;;;;;;4.50;4.10;;;24.90;35.80;;;;;;4965126;28;20707;-46
2023/06/13 03:05:09;;;;;;;7.63;4.67;;;24.90;35.90;;;;;;4969003;28;20486;-46
2023/06/13 03:07:35;;;;;;;4.97;3.97;;;25.00;36.10;;;;;;4966537;28;20443;-45
2023/06/13 03:10:02;;;;;;;5.20;4.57;;;25.00;35.80;;;;;;4963753;28;20461;-46
2023/06/13 03:12:29;;;;;;;4.40;4.00;;;25.00;36.20;;;;;;4968641;28;20257;-46
2023/06/13 03:14:54;;;;;;;4.97;4.50;;;25.10;36.00;;;;;;4964805;28;23064;-46
2023/06/13 03:17:20;;;;;;;5.37;4.73;;;25.20;35.70;;;;;;4965740;28;20222;-45
2023/06/13 03:19:45;;;;;;;5.27;4.77;;;25.20;35.70;;;;;;4969877;28;20274;-52
2023/06/13 03:22:13;;;;;;;5.80;3.97;;;25.20;35.60;;;;;;4970183;28;20206;-47
2023/06/13 03:24:44;;;;;;;6.43;3.90;;;25.20;35.30;;;;;;4970760;28;20682;-46
2023/06/13 03:27:12;;;;;;;6.47;4.20;;;25.30;35.40;;;;;;4969807;28;20473;-45
2023/06/13 03:29:41;;;;;;;4.73;4.30;;;25.30;35.50;;;;;;4969511;28;20533;-50
2023/06/13 03:32:10;;;;;;;4.87;4.23;;;25.40;35.50;;;;;;4960311;28;20449;-46
2023/06/13 03:34:38;;;;;;;5.10;4.30;;;25.40;35.20;;;;;;4970965;28;20467;-50
2023/06/13 03:37:05;;;;;;;4.33;4.00;;;25.40;35.40;;;;;;4970899;28;20443;-45
2023/06/13 03:39:31;;;;;;;6.00;4.20;;;25.40;35.10;;;;;;4968797;28;20497;-48
2023/06/13 03:41:56;;;;;;;4.60;4.07;;;25.30;36.20;;;;;;4967917;28;20845;-45
2023/06/13 03:44:22;;;;;;;4.83;4.43;;;25.40;35.70;;;;;;4967435;28;20242;-45
2023/06/13 03:46:47;;;;;;;4.97;4.43;;;25.40;35.60;;;;;;4966749;28;20196;-46
2023/06/13 03:49:13;;;;;;;5.07;4.67;;;25.40;35.40;;;;;;4967091;28;20203;-46
2023/06/13 03:51:38;;;;;;;4.80;4.40;;;25.40;35.50;;;;;;4969946;28;20195;-45
2023/06/13 03:54:04;;;;;;;4.33;3.93;;;25.40;35.50;;;;;;4964792;28;20202;-50
2023/06/13 03:56:30;;;;;;;7.13;5.17;;;25.40;35.30;;;;;;4954379;28;20260;-46
2023/06/13 03:58:55;;;;;;;5.23;4.77;;;25.40;35.60;;;;;;4961426;28;20198;-45
2023/06/13 04:01:21;;;;;;;4.40;4.00;;;25.40;35.40;;;;;;4964489;28;20211;-46
2023/06/13 04:03:47;;;;;;;5.10;4.60;;;25.50;35.50;;;;;;4967901;28;20361;-46
2023/06/13 04:06:12;;;;;;;4.93;4.53;;;25.50;35.50;;;;;;4957184;28;20204;-52
2023/06/13 04:08:38;;;;;;;5.40;5.00;;;25.40;35.50;;;;;;4959098;28;20273;-48
2023/06/13 04:11:05;;;;;;;7.70;4.40;;;25.40;35.30;;;;;;4960963;28;20187;-46
2023/06/13 04:13:31;;;;;;;5.20;4.70;;;25.40;35.20;;;;;;4969771;28;20540;-45
2023/06/13 04:15:56;;;;;;;5.20;4.70;;;25.40;35.10;;;;;;4965756;28;20530;-46
2023/06/13 04:18:23;;;;;;;5.73;4.73;;;25.20;35.20;;;;;;4966476;28;20278;-47
2023/06/13 04:20:51;;;;;;;4.33;3.93;;;25.00;35.90;;;;;;4974969;28;20207;-48
2023/06/13 04:23:17;;;;;;;5.90;4.20;;;24.90;35.90;;;;;;4967913;28;20454;-46
2023/06/13 04:25:43;;;;;;;4.70;4.30;;;24.80;36.10;;;;;;4972386;28;21004;-46
2023/06/13 04:28:12;;;;;;;4.40;4.00;;;24.70;36.00;;;;;;4967547;28;20860;-45
2023/06/13 04:30:40;;;;;;;5.60;4.10;;;24.80;35.90;;;;;;4976055;28;20454;-48
2023/06/13 04:33:14;;;;;;;6.27;4.87;;;24.80;35.80;;;;;;4973646;28;20462;-45
2023/06/13 04:35:48;;;;;;;4.00;3.70;;;24.80;36.10;;;;;;4973833;28;20461;-47
2023/06/13 04:38:20;;;;;;;4.27;3.87;;;24.80;35.40;;;;;;4974007;28;20517;-51
2023/06/13 04:40:46;;;;;;;4.40;4.00;;;24.80;36.00;;;;;;4972718;28;20473;-51
2023/06/13 04:43:14;;;;;;;4.30;4.00;;;24.90;36.40;;;;;;4967787;28;20934;-49
2023/06/13 04:45:41;;;;;;;4.73;4.33;;;24.90;36.30;;;;;;4972025;28;20474;-51
2023/06/13 04:48:09;;;;;;;4.60;4.20;;;25.00;35.90;;;;;;4969342;28;20493;-51
2023/06/13 04:50:40;;;;;;;4.33;3.93;;;25.00;35.70;;;;;;4966159;28;20450;-52
2023/06/13 04:53:11;;;;;;;8.20;4.30;;;25.10;35.50;;;;;;4973450;28;20869;-49
2023/06/13 04:55:37;;;;;;;3.80;3.50;;;25.20;36.40;;;;;;4967074;28;20485;-51
2023/06/13 04:58:07;;;;;;;5.17;4.73;;;25.20;35.90;;;;;;4967456;28;20485;-50
2023/06/13 05:00:32;;;;;;;4.17;3.80;;;25.30;35.60;;;;;;4965538;28;20860;-51
2023/06/13 05:03:00;;;;;;;4.33;3.67;;;25.20;36.80;;;;;;4974147;28;20447;-50
2023/06/13 05:05:26;;;;;;;4.80;3.90;;;25.00;37.00;;;;;;4971488;28;20226;-51
2023/06/13 05:07:59;;;;;;;4.53;3.60;;;25.00;37.10;;;;;;4970942;28;20504;-51
2023/06/13 05:10:26;;;;;;;3.90;3.53;;;25.30;36.30;;;;;;4961393;28;20194;-51
2023/06/13 05:12:52;;;;;;;5.53;3.60;;;25.50;35.60;;;;;;4970854;28;20917;-50
2023/06/13 05:15:19;;;;;;;6.23;3.90;;;25.60;35.70;;;;;;4965075;28;20971;-49
2023/06/13 05:17:45;;;;;;;4.83;3.70;;;25.60;34.80;;;;;;4963781;28;20526;-51
2023/06/13 05:20:12;;;;;;;4.00;3.60;;;25.60;34.60;;;;;;4970430;28;20517;-51
2023/06/13 05:22:39;;;;;;;7.70;3.67;;;25.50;34.70;;;;;;4968588;28;20196;-52
2023/06/13 05:25:08;;;;;;;4.43;4.10;;;25.60;34.90;;;;;;4974674;28;20486;-49
2023/06/13 05:27:34;;;;;;;7.67;3.80;;;25.50;34.50;;;;;;4968921;28;20491;-47
2023/06/13 05:30:00;;;;;;;4.30;4.00;;;24.80;35.10;;;;;;4974472;28;20479;-51
2023/06/13 05:32:25;;;;;;;5.30;4.83;;;24.60;36.30;;;;;;4969455;28;20653;-52
2023/06/13 05:34:51;;;;;;;4.13;3.83;;;24.80;35.90;;;;;;4969337;28;20196;-48
2023/06/13 05:37:17;;;;;;;4.90;4.40;;;24.60;35.40;;;;;;4973002;28;20199;-50
2023/06/13 05:39:43;;;;;;;4.47;4.07;;;24.50;35.70;;;;;;4971384;28;20199;-47
2023/06/13 05:42:09;;;;;;;5.30;4.20;;;24.70;35.70;;;;;;4974870;28;20477;-51
2023/06/13 05:44:34;;;;;;;6.20;3.70;;;24.80;35.70;;;;;;4972277;28;20594;-49
2023/06/13 05:47:00;;;;;;;4.47;4.10;;;24.70;34.70;;;;;;4969882;28;20651;-51
2023/06/13 05:49:26;;;;;;;3.50;3.23;;;24.40;35.50;;;;;;4971718;28;20315;-52
2023/06/13 05:51:53;;;;;;;5.30;4.20;;;24.50;35.90;;;;;;4969183;28;20210;-52
2023/06/13 05:54:19;;;;;;;5.10;4.33;;;24.60;34.40;;;;;;4974328;28;20286;-50
2023/06/13 05:56:45;;;;;;;3.87;3.33;;;24.30;34.90;;;;;;4972921;28;20501;-51
2023/06/13 05:59:14;;;;;;;3.73;3.23;;;24.10;35.00;;;;;;4975505;28;20426;-50
2023/06/13 06:01:41;;;;;;;4.17;3.30;;;24.10;35.10;;;;;;4972474;28;20203;-50
2023/06/13 06:04:07;;;;;;;3.37;3.10;;;24.10;35.10;;;;;;4972104;28;20895;-52
2023/06/13 06:06:32;;;;;;;5.33;3.27;;;23.90;34.50;;;;;;4972167;28;20545;-54
2023/06/13 06:08:58;;;;;;;3.70;3.30;;;23.50;34.90;;;;;;4973325;28;20568;-51
2023/06/13 06:11:23;;;;;;;3.50;3.20;;;23.20;36.10;;;;;;4973178;28;20205;-52
2023/06/13 06:13:49;;;;;;;4.13;3.70;;;23.10;35.30;;;;;;4975383;28;20199;-49
2023/06/13 06:16:14;;;;;;;6.73;3.13;;;23.30;35.00;;;;;;4973731;28;20711;-52
2023/06/13 06:18:41;;;;;;;4.70;3.53;;;22.90;34.40;;;;;;4973387;28;20246;-48
2023/06/13 06:21:07;;;;;;;3.20;2.97;;;22.70;34.50;;;;;;4975048;28;20231;-52
2023/06/13 06:23:32;;;;;;;3.77;3.47;;;22.70;34.40;;;;;;4974972;28;20463;-51
2023/06/13 06:25:58;;;;;;;5.93;3.50;;;22.70;34.10;;;;;;4975037;28;20194;-49
2023/06/13 06:28:23;;;;;;;3.70;2.93;;;22.80;34.50;;;;;;4973731;28;20206;-52
2023/06/13 06:30:49;;;;;;;3.60;3.23;;;22.80;34.10;;;;;;4974978;28;20278;-50
2023/06/13 06:33:14;;;;;;;3.47;3.17;;;22.70;34.00;;;;;;4974586;28;20195;-52
2023/06/13 06:35:40;;;;;;;4.13;3.70;;;22.70;33.80;;;;;;4973950;28;20234;-47
2023/06/13 06:38:06;;;;;;;4.20;3.40;;;22.90;34.30;;;;;;4971437;28;20199;-47
2023/06/13 06:40:31;;;;;;;3.50;3.20;;;23.10;33.70;;;;;;4973048;28;20215;-49
2023/06/13 06:42:57;;;;;;;4.10;3.10;;;23.20;32.90;;;;;;4973940;28;20219;-53
2023/06/13 06:45:22;;;;;;;3.67;3.37;;;23.30;32.70;;;;;;4972460;28;20262;-52
2023/06/13 06:47:48;;;;;;;6.43;3.30;;;23.10;32.70;;;;;;4974524;28;20184;-51
2023/06/13 06:50:14;;;;;;;3.93;3.00;;;23.10;32.00;;;;;;4971557;28;20758;-52
2023/06/13 06:52:39;;;;;;;3.30;3.10;;;23.20;32.40;;;;;;4971760;28;20196;-51
2023/06/13 06:55:05;;;;;;;8.37;3.47;;;23.20;32.00;;;;;;4969682;28;21015;-50
2023/06/13 06:57:31;;;;;;;5.20;3.23;;;23.30;32.60;;;;;;4964533;28;20287;-48
2023/06/13 06:59:56;;;;;;;5.93;3.30;;;23.70;32.30;;;;;;4968583;28;20194;-49
2023/06/13 07:02:22;;;;;;;5.80;5.20;;;23.90;32.50;;;;;;4963530;28;20542;-47
2023/06/13 07:04:47;;;;;;;6.63;3.60;;;23.90;32.40;;;;;;4970324;28;20238;-47
2023/06/13 07:07:13;;;;;;;3.77;3.13;;;23.90;31.30;;;;;;4968608;28;20192;-50
2023/06/13 07:09:38;;;;;;;3.50;3.20;;;24.00;30.60;;;;;;4969362;28;20226;-47
2023/06/13 07:12:05;;;;;;;4.07;3.70;;;24.40;30.30;;;;;;4965529;28;20195;-50
2023/06/13 07:14:30;;;;;;;4.20;3.80;;;24.50;30.90;;;;;;4964593;28;20255;-51
2023/06/13 07:16:56;;;;;;;3.87;3.40;;;24.60;30.10;;;;;;4963334;28;20442;-48
2023/06/13 07:19:23;;;;;;;3.57;3.27;;;24.50;30.30;;;;;;4965789;28;20199;-51
2023/06/13 07:21:49;;;;;;;3.40;3.10;;;24.30;30.40;;;;;;4960610;28;20203;-47
2023/06/13 07:24:14;;;;;;;5.03;3.10;;;24.40;29.90;;;;;;4968826;28;20509;-49
2023/06/13 07:26:40;;;;;;;4.00;3.70;;;24.50;30.20;;;;;;4969418;28;20203;-47
2023/06/13 07:29:05;;;;;;;3.90;3.50;;;24.50;30.00;;;;;;4971457;28;20210;-47
2023/06/13 07:31:31;;;;;;;4.77;2.93;;;24.70;29.70;;;;;;4964728;28;20183;-49
2023/06/13 07:33:57;;;;;;;3.43;3.13;;;25.00;29.20;;;;;;4968229;28;20253;-47
2023/06/13 07:36:22;;;;;;;3.63;3.17;;;25.20;28.90;;;;;;4968355;28;20199;-48
2023/06/13 07:38:50;;;;;;;3.87;3.57;;;25.10;28.70;;;;;;4966483;28;20222;-47
2023/06/13 07:41:16;;;;;;;3.53;3.23;;;25.40;28.80;;;;;;4967098;28;20227;-48
2023/06/13 07:43:41;;;;;;;3.80;3.20;;;25.70;28.00;;;;;;4963898;28;20925;-48
2023/06/13 07:46:07;;;;;;;4.90;3.07;;;25.90;28.20;;;;;;4967098;28;20235;-48
2023/06/13 07:48:32;;;;;;;6.87;4.20;;;25.90;28.10;;;;;;4967907;28;20210;-53
2023/06/13 07:50:58;;;;;;;3.73;3.43;;;26.20;28.10;;;;;;4971099;28;20195;-48
2023/06/13 07:53:23;;;;;;;8.93;3.50;;;26.30;27.60;;;;;;4975303;28;20197;-48
2023/06/13 07:55:50;;;;;;;4.70;3.20;;;26.50;27.90;;;;;;4974824;28;20567;-48
2023/06/13 07:58:16;;;;;;;3.60;3.30;;;26.60;27.90;;;;;;4974720;28;20198;-48
2023/06/13 08:00:41;;;;;;;6.07;3.20;;;26.50;28.00;;;;;;4977036;28;20426;-48
2023/06/13 08:03:07;;;;;;;4.97;3.33;;;26.60;27.80;;;;;;4977099;28;20198;-47
2023/06/13 08:05:33;;;;;;;6.40;3.60;;;26.70;27.60;;;;;;4976502;28;20589;-47
2023/06/13 08:07:58;;;;;;;5.53;3.77;;;26.80;27.40;;;;;;4974566;28;20260;-49
2023/06/13 08:10:25;;;;;;;7.13;3.53;;;26.80;27.70;;;;;;4976314;28;20712;-49
2023/06/13 08:12:52;;;;;;;3.87;3.47;;;27.10;27.40;;;;;;4976418;28;20210;-48
2023/06/13 08:15:17;;;;;;;5.20;3.60;;;27.00;27.20;;;;;;4976940;28;20426;-48
2023/06/13 08:17:43;;;;;;;6.40;3.80;;;27.00;27.20;;;;;;4976502;28;20934;-48
2023/06/13 08:20:09;;;;;;;7.87;3.27;;;26.80;27.20;;;;;;4977272;28;20647;-47
2023/06/13 08:22:39;;;;;;;6.50;3.50;;;26.70;27.80;;;;;;4977172;28;20180;-47
2023/06/13 08:25:08;;;;;;;8.43;3.80;;;26.80;27.50;;;;;;4975043;28;20536;-48
2023/06/13 08:27:36;;;;;;;4.07;3.47;;;27.10;27.40;;;;;;4976962;28;20992;-49
2023/06/13 08:30:03;;;;;;;3.40;3.10;;;27.10;27.10;;;;;;4974222;28;20446;-48
2023/06/13 08:32:31;;;;;;;3.60;3.30;;;27.10;27.20;;;;;;4976978;28;20423;-48
2023/06/13 08:34:57;;;;;;;4.43;3.10;;;27.50;27.50;;;;;;4976798;28;20485;-48
2023/06/13 08:37:23;;;;;;;3.90;3.60;;;27.80;27.20;;;;;;4976976;28;20423;-48
2023/06/13 08:39:48;;;;;;;4.17;3.80;;;28.10;27.00;;;;;;4972069;28;20445;-51
2023/06/13 08:42:14;;;;;;;3.77;3.50;;;28.00;26.40;;;;;;4973858;28;20289;-49
2023/06/13 08:44:41;;;;;;;3.83;3.50;;;27.90;26.40;;;;;;4974355;28;20222;-50
2023/06/13 08:47:07;;;;;;;4.47;3.80;;;28.10;26.40;;;;;;4976353;28;20202;-47
2023/06/13 08:49:33;;;;;;;5.33;4.03;;;28.10;26.20;;;;;;4974837;28;20458;-52
2023/06/13 08:51:59;;;;;;;6.10;3.80;;;28.10;26.30;;;;;;4967820;28;20453;-49
2023/06/13 08:54:26;;;;;;;3.90;3.60;;;28.20;26.40;;;;;;4975438;28;20306;-49
2023/06/13 08:56:53;;;;;;;7.37;3.60;;;28.30;26.30;;;;;;4974962;28;20464;-49
2023/06/13 08:59:26;;;;;;;7.30;4.60;;;28.20;26.30;;;;;;4974304;28;20451;-49
2023/06/13 09:01:53;;;;;;;3.67;3.37;;;28.10;26.50;;;;;;4974334;28;20450;-49
2023/06/13 09:04:19;;;;;;;4.63;3.67;;;28.20;26.30;;;;;;4973639;28;20512;-49
2023/06/13 09:06:45;;;;;;;4.53;3.77;;;28.20;26.80;;;;;;4975709;28;20446;-48
2023/06/13 09:09:12;;;;;;;5.00;3.47;;;28.60;26.70;;;;;;4973210;28;20946;-48
2023/06/13 09:11:38;;;;;;;3.80;3.50;;;28.80;26.20;;;;;;4972545;28;20514;-49
2023/06/13 09:14:06;;;;;;;3.90;3.60;;;29.00;25.60;;;;;;4975384;28;20451;-49
2023/06/13 09:16:32;;;;;;;4.17;2.80;;;28.80;24.40;;;;;;4976220;28;20238;-49
2023/06/13 09:18:58;;;;;;;7.50;3.60;;;28.60;25.20;;;;;;4974722;28;20840;-50
2023/06/13 09:21:24;;;;;;;4.00;3.20;;;28.70;24.90;;;;;;4971251;28;20514;-48
2023/06/13 09:23:59;;;;;;;10.27;3.70;;;29.00;25.10;;;;;;4972929;28;20675;-48
2023/06/13 09:26:26;;;;;;;4.40;3.73;;;29.00;25.00;;;;;;4971364;28;20451;-49
2023/06/13 09:28:51;;;;;;;4.17;3.77;;;28.90;25.70;;;;;;4971446;28;20450;-53
2023/06/13 09:31:17;;;;;;;5.23;3.60;;;29.00;25.50;;;;;;4973096;28;20839;-48
2023/06/13 09:33:44;;;;;;;3.97;3.57;;;29.30;24.80;;;;;;4967573;28;20200;-47
2023/06/13 09:36:10;;;;;;;6.83;3.40;;;29.50;24.30;;;;;;4964976;28;20196;-49
2023/06/13 09:38:41;;;;;;;4.97;3.37;;;29.50;23.70;;;;;;4963363;28;20470;-50
2023/06/13 09:41:12;;;;;;;3.57;3.27;;;29.60;24.20;;;;;;4971327;28;20302;-49
2023/06/13 09:43:38;;;;;;;5.67;3.50;;;29.70;23.60;;;;;;4970559;28;20450;-48
2023/06/13 09:46:04;;;;;;;4.00;3.37;;;30.10;23.90;;;;;;4969510;28;20451;-53
2023/06/13 09:48:29;;;;;;;4.20;3.80;;;30.20;23.50;;;;;;4971037;28;20538;-47
2023/06/13 09:50:55;;;;;;;3.80;3.50;;;30.30;23.50;;;;;;4971979;28;20192;-48
2023/06/13 09:53:21;;;;;;;4.00;3.70;;;30.50;24.20;;;;;;4973754;28;20199;-49
2023/06/13 09:55:49;;;;;;;3.43;3.23;;;30.60;22.80;;;;;;4973330;28;20274;-50
2023/06/13 09:58:16;;;;;;;7.23;3.47;;;30.60;23.10;;;;;;4968037;28;20192;-50
2023/06/13 10:00:41;;;;;;;4.33;3.40;;;30.70;22.70;;;;;;4979309;28;20429;-48
2023/06/13 10:03:08;;;;;;;4.20;3.73;;;30.70;22.80;;;;;;4979312;28;20446;-47
2023/06/13 10:05:34;;;;;;;4.03;3.47;;;30.70;23.20;;;;;;4974260;28;20231;-48
2023/06/13 10:08:00;;;;;;;4.53;4.10;;;31.00;23.40;;;;;;4971741;28;20447;-48
2023/06/13 10:10:26;;;;;;;9.50;3.90;;;31.20;22.60;;;;;;4971994;28;20784;-49
2023/06/13 10:12:58;;;;;;;7.80;3.53;;;31.30;22.50;;;;;;4970337;28;20526;-48
2023/06/13 10:15:33;;;;;;;4.83;3.80;;;31.30;22.80;;;;;;4967407;28;20214;-47
2023/06/13 10:18:10;;;;;;;4.83;3.50;;;31.50;22.60;;;;;;4972222;28;20450;-48
2023/06/13 10:20:38;;;;;;;3.37;2.90;;;31.60;21.70;;;;;;4972606;28;20462;-48
2023/06/13 10:23:05;;;;;;;4.30;3.67;;;31.40;21.50;;;;;;4972554;28;20442;-49
2023/06/13 10:25:33;;;;;;;6.67;3.77;;;31.40;22.40;;;;;;4964448;28;20490;-48
2023/06/13 10:28:28;;;;;;;5.13;4.37;;;31.00;22.70;;;;;;4970406;28;20438;-48
2023/06/13 10:31:52;;;;;;;4.10;3.40;;;30.60;23.10;;;;;;4966331;28;20480;-49
2023/06/13 10:34:34;;;;;;;4.00;3.23;;;30.60;22.90;;;;;;4910216;29;20467;-47
2023/06/13 10:37:22;;;;;;;5.40;3.50;;;31.10;22.80;;;;;;4910617;29;21025;-48
2023/06/13 10:40:06;;;;;;;4.20;3.60;;;31.40;22.80;;;;;;4950264;28;20482;-50
2023/06/13 10:42:54;;;;;;;3.57;3.27;;;31.50;21.70;;;;;;4972272;28;20485;-48
2023/06/13 10:45:24;;;;;;;4.90;3.70;;;31.50;21.20;;;;;;4967118;28;20494;-48
2023/06/13 10:47:50;;;;;;;6.70;3.90;;;31.60;21.10;;;;;;4970512;28;20926;-48
2023/06/13 10:50:17;;;;;;;4.90;4.07;;;31.60;21.10;;;;;;4970086;28;20525;-52
2023/06/13 10:52:48;;;;;;;5.43;3.67;;;31.60;21.10;;;;;;4973951;28;20459;-48
2023/06/13 10:55:23;;;;;;;6.37;3.90;;;31.60;21.30;;;;;;4972007;28;20454;-50
2023/06/13 10:57:50;;;;;;;3.53;3.23;;;31.60;21.20;;;;;;4971368;28;20946;-49
2023/06/13 11:00:25;;;;;;;5.43;3.60;;;31.70;21.10;;;;;;4970100;28;20442;-48
2023/06/13 11:02:57;;;;;;;4.90;2.80;;;31.90;21.60;;;;;;4972666;28;20442;-48
2023/06/13 11:05:23;;;;;;;4.03;3.73;;;32.10;21.00;;;;;;4970591;28;20892;-48
2023/06/13 11:07:48;;;;;;;3.77;3.43;;;32.10;21.20;;;;;;4969045;28;20450;-48
2023/06/13 11:10:16;;;;;;;4.30;3.90;;;32.10;21.60;;;;;;4972499;28;20278;-49
2023/06/13 11:12:43;;;;;;;5.80;3.93;;;32.30;21.30;;;;;;4971191;28;21878;-49
2023/06/13 11:15:25;;;;;;;4.13;3.73;;;32.50;21.30;;;;;;4972263;28;20450;-48
2023/06/13 11:18:09;;;;;;;4.73;3.80;;;32.80;20.80;;;;;;4971057;28;20488;-53
2023/06/13 11:20:46;;;;;;;4.27;3.87;;;32.80;20.40;;;;;;4970417;28;20450;-48
2023/06/13 11:23:18;;;;;;;4.80;3.60;;;32.90;20.70;;;;;;4971427;28;20450;-48
2023/06/13 11:25:44;;;;;;;4.83;3.40;;;33.10;20.60;;;;;;4969952;28;20868;-49
2023/06/13 11:28:13;;;;;;;5.63;4.10;;;33.10;20.10;;;;;;4973216;28;20457;-48
2023/06/13 11:30:42;;;;;;;3.50;3.17;;;33.20;20.60;;;;;;4972353;28;20937;-50
2023/06/13 11:33:09;;;;;;;5.17;4.67;;;33.40;21.10;;;;;;4971350;28;20938;-49
2023/06/13 11:35:36;;;;;;;4.30;3.90;;;33.70;21.00;;;;;;4970104;28;20477;-54
2023/06/13 11:38:08;;;;;;;4.07;3.43;;;34.00;20.80;;;;;;4970492;28;20448;-48
2023/06/13 11:40:39;;;;;;;3.73;3.43;;;33.80;20.20;;;;;;4971416;28;20517;-48
2023/06/13 11:43:05;;;;;;;4.43;3.23;;;33.80;20.10;;;;;;4971082;28;20954;-48
2023/06/13 11:45:31;;;;;;;4.20;3.60;;;34.00;20.50;;;;;;4970651;28;20544;-48
2023/06/13 11:48:00;;;;;;;6.57;3.97;;;34.10;20.20;;;;;;4973030;28;20822;-48
2023/06/13 11:50:26;;;;;;;5.20;3.70;;;33.80;20.70;;;;;;4969500;28;20195;-49
2023/06/13 11:53:05;;;;;;;6.50;4.03;;;33.90;19.80;;;;;;4970016;28;20442;-49
2023/06/13 11:55:31;;;;;;;6.47;4.33;;;33.90;19.50;;;;;;4972480;28;20450;-51
2023/06/13 11:57:56;;;;;;;3.97;3.67;;;33.90;20.80;;;;;;4971445;28;20812;-49
2023/06/13 12:00:26;;;;;;;4.57;3.80;;;33.90;19.70;;;;;;4971395;28;20215;-48
2023/06/13 12:02:52;;;;;;;4.93;3.97;;;34.00;19.60;;;;;;4970608;28;20203;-48
2023/06/13 12:05:19;;;;;;;4.50;4.10;;;34.10;19.50;;;;;;4972824;28;20490;-49
2023/06/13 12:07:45;;;;;;;6.40;4.40;;;33.90;19.60;;;;;;4971393;28;20482;-48
2023/06/13 12:10:12;;;;;;;4.80;3.90;;;33.70;19.80;;;;;;4970013;28;20537;-49
2023/06/13 12:12:38;;;;;;;4.70;4.30;;;34.00;19.80;;;;;;4971792;28;20946;-48
2023/06/13 12:15:05;;;;;;;4.47;4.17;;;34.40;19.70;;;;;;4964723;28;20454;-49
2023/06/13 12:17:30;;;;;;;5.03;3.50;;;34.50;19.30;;;;;;4969824;28;20318;-53
2023/06/13 12:20:12;;;;;;;6.40;4.17;;;34.70;20.10;;;;;;4972514;28;20453;-49
2023/06/13 12:22:38;;;;;;;6.13;4.67;;;34.90;19.60;;;;;;4971557;28;20240;-53
2023/06/13 12:25:04;;;;;;;4.27;3.73;;;34.50;19.20;;;;;;4965525;28;20534;-52
2023/06/13 12:27:31;;;;;;;6.80;4.10;;;34.00;19.40;;;;;;4961732;28;20203;-51
2023/06/13 12:30:13;;;;;;;4.40;4.00;;;34.00;20.00;;;;;;4966076;28;20533;-52
2023/06/13 12:32:43;;;;;;;4.83;4.27;;;34.20;19.50;;;;;;4968463;28;20821;-53
2023/06/13 12:35:09;;;;;;;6.10;4.23;;;34.40;19.00;;;;;;4966254;28;20497;-49
2023/06/13 12:37:37;;;;;;;6.23;4.80;;;34.40;18.20;;;;;;4971017;28;20453;-52
2023/06/13 12:40:11;;;;;;;4.73;4.33;;;34.30;18.20;;;;;;4971891;28;21022;-53
2023/06/13 12:42:36;;;;;;;4.50;4.20;;;34.30;18.70;;;;;;4966685;28;20473;-50
2023/06/13 12:45:03;;;;;;;4.27;3.97;;;34.60;18.80;;;;;;4968170;28;20515;-55
2023/06/13 12:47:28;;;;;;;6.00;4.33;;;34.80;18.60;;;;;;4968016;28;20222;-49
2023/06/13 12:50:06;;;;;;;4.83;4.50;;;34.80;18.70;;;;;;4967797;28;20482;-52
2023/06/13 12:52:32;;;;;;;11.17;4.10;;;35.10;18.40;;;;;;4974270;28;20200;-51